Time;durP1;ratioP1;P1;durP2;ratioP2;P2;SDS_P1;SDS_P2;PMS_P1;PMS_P2;Temp;Humidity;BMP_temperature;BMP_pressure;BME280_temperature;BME280_humidity;BME280_pressure;Samples;Min_cycle;Max_cycle;Signal;HPM_P1;HPM_P2
2022/08/21 00:02:23;;;;;;;4.57;2.97;;;;;;;20.39;85.91;98691.59;4501049;31;34986;-81
2022/08/21 00:04:52;;;;;;;4.80;2.67;;;;;;;20.39;86.29;98684.50;4485731;32;34485;-81
2022/08/21 00:07:25;;;;;;;4.85;2.83;;;;;;;20.51;85.55;98684.69;4486187;31;32876;-80
2022/08/21 00:09:53;;;;;;;4.55;2.70;;;;;;;20.72;83.82;98677.22;4484612;32;34641;-81
2022/08/21 00:12:21;;;;;;;5.45;3.15;;;;;;;20.75;84.29;98683.16;4484499;31;34988;-80
2022/08/21 00:14:49;;;;;;;5.62;2.87;;;;;;;20.49;84.88;98682.16;4498899;31;34520;-81
2022/08/21 00:17:23;;;;;;;5.22;3.55;;;;;;;20.85;83.60;98685.25;4500104;31;33795;-80
2022/08/21 00:19:51;;;;;;;4.75;2.87;;;;;;;20.52;85.60;98678.44;4485642;32;33966;-81
2022/08/21 00:22:19;;;;;;;5.50;3.45;;;;;;;20.71;84.60;98671.09;4478512;32;35006;-80
2022/08/21 00:24:47;;;;;;;4.62;2.72;;;;;;;20.56;85.50;98667.59;4500613;31;34465;-81
2022/08/21 00:27:15;;;;;;;5.12;3.10;;;;;;;20.45;86.64;98667.41;4501440;31;33619;-81
2022/08/21 00:29:43;;;;;;;5.25;3.28;;;;;;;20.45;85.79;98676.19;4498681;31;33959;-82
2022/08/21 00:32:11;;;;;;;4.07;2.80;;;;;;;20.80;83.47;98669.66;4500470;31;35164;-81
2022/08/21 00:34:39;;;;;;;4.50;3.05;;;;;;;20.19;87.43;98669.00;4500576;31;35336;-81
2022/08/21 00:37:07;;;;;;;4.97;2.95;;;;;;;20.71;84.53;98675.53;4500603;31;33545;-81
2022/08/21 00:39:35;;;;;;;4.37;2.62;;;;;;;20.67;83.74;98666.09;4500416;31;33581;-81
2022/08/21 00:42:04;;;;;;;4.62;3.03;;;;;;;20.35;85.79;98674.22;4501256;31;36014;-81
2022/08/21 00:44:32;;;;;;;4.45;2.60;;;;;;;20.77;82.92;98669.84;4500429;31;34323;-82
2022/08/21 00:47:00;;;;;;;4.43;2.80;;;;;;;20.78;82.83;98674.19;4496722;31;34595;-81
2022/08/21 00:49:28;;;;;;;5.80;2.62;;;;;;;20.59;83.32;98667.37;4500258;31;33925;-82
2022/08/21 00:51:58;;;;;;;4.53;3.08;;;;;;;20.82;82.21;98673.06;4501125;31;35023;-81
2022/08/21 00:54:28;;;;;;;4.25;2.85;;;;;;;20.52;83.82;98675.81;4498766;31;34396;-81
2022/08/21 00:57:02;;;;;;;4.55;2.70;;;;;;;20.36;84.88;98670.62;4499980;31;34592;-81
2022/08/21 00:59:34;;;;;;;4.47;3.00;;;;;;;20.43;84.22;98669.28;4498504;31;34657;-81
2022/08/21 01:02:04;;;;;;;5.70;3.12;;;;;;;20.72;82.95;98672.81;4500085;31;35057;-81
2022/08/21 01:04:32;;;;;;;5.43;3.42;;;;;;;20.42;84.71;98678.19;4499888;31;34508;-81
2022/08/21 01:07:00;;;;;;;6.90;3.37;;;;;;;20.17;86.23;98663.84;4502561;31;33560;-81
2022/08/21 01:09:28;;;;;;;5.37;3.25;;;;;;;20.16;86.97;98669.22;4491464;31;34083;-81
2022/08/21 01:11:57;;;;;;;5.10;3.10;;;;;;;20.16;87.04;98677.97;4483922;31;35920;-81
2022/08/21 01:14:25;;;;;;;5.80;3.55;;;;;;;20.55;84.78;98676.47;4500128;31;34399;-81
2022/08/21 01:16:54;;;;;;;5.90;3.33;;;;;;;20.36;84.70;98674.09;4501960;31;33725;-81
2022/08/21 01:19:22;;;;;;;5.93;3.08;;;;;;;20.21;86.63;98675.91;4486843;31;32419;-82
2022/08/21 01:21:50;;;;;;;5.65;3.33;;;;;;;20.26;86.85;98668.53;4501562;31;35104;-82
2022/08/21 01:24:18;;;;;;;6.40;3.60;;;;;;;20.55;85.07;98662.41;4501954;31;34492;-82
2022/08/21 01:26:48;;;;;;;7.80;3.47;;;;;;;20.56;84.90;98664.94;4500538;31;33804;-84
2022/08/21 01:29:28;;;;;;;5.90;3.60;;;;;;;20.72;84.11;98667.50;4490248;31;33929;-83
2022/08/21 01:31:58;;;;;;;5.85;3.37;;;;;;;20.62;84.48;98672.53;4486908;32;35175;-82
2022/08/21 01:34:25;;;;;;;8.63;3.28;;;;;;;20.52;83.51;98666.06;4497475;31;35201;-82
2022/08/21 01:36:53;;;;;;;6.43;3.30;;;;;;;20.20;86.03;98668.91;4502656;31;34474;-83
2022/08/21 01:39:21;;;;;;;5.15;3.20;;;;;;;20.03;87.85;98664.66;4501733;31;34398;-82
2022/08/21 01:41:49;;;;;;;6.20;3.25;;;;;;;20.81;83.25;98661.63;4501622;31;35128;-81
2022/08/21 01:44:21;;;;;;;8.25;3.65;;;;;;;20.55;83.50;98657.94;4501798;31;34492;-82
2022/08/21 01:46:50;;;;;;;6.47;3.50;;;;;;;20.49;84.67;98661.00;4501456;31;33531;-83
2022/08/21 01:49:18;;;;;;;7.45;3.78;;;;;;;20.14;87.54;98649.94;4500083;31;33938;-84
2022/08/21 01:51:46;;;;;;;6.70;3.60;;;;;;;20.51;84.50;98645.88;4502576;31;35814;-81
2022/08/21 01:54:14;;;;;;;6.78;3.60;;;;;;;20.68;83.06;98647.47;4501642;31;34649;-84
2022/08/21 01:56:46;;;;;;;4.87;2.92;;;;;;;20.46;84.87;98655.88;4487933;31;33624;-82
2022/08/21 01:59:14;;;;;;;5.87;3.67;;;;;;;20.42;85.45;98654.38;4492912;31;34715;-84
2022/08/21 02:01:42;;;;;;;5.15;3.12;;;;;;;20.92;81.96;98658.28;4501635;31;35273;-84
2022/08/21 02:04:10;;;;;;;5.55;3.42;;;;;;;20.29;85.88;98653.44;4501807;31;34558;-82
2022/08/21 02:06:38;;;;;;;6.47;3.70;;;;;;;20.66;84.02;98643.22;4492227;31;34109;-82
2022/08/21 02:09:08;;;;;;;7.03;4.03;;;;;;;20.59;83.73;98645.37;4491909;31;33713;-83
2022/08/21 02:11:40;;;;;;;5.72;3.37;;;;;;;20.57;84.25;98649.91;4501405;31;34161;-82
2022/08/21 02:14:14;;;;;;;7.62;3.67;;;;;;;20.40;84.76;98656.25;4498761;31;34325;-82
2022/08/21 02:16:59;;;;;;;6.37;3.55;;;;;;;20.32;85.52;98645.31;4483402;31;34579;-81
2022/08/21 02:19:37;;;;;;;8.13;3.90;;;;;;;20.21;86.57;98636.25;4496725;31;34832;-82
2022/08/21 02:22:08;;;;;;;6.32;3.25;;;;;;;20.32;85.68;98648.81;4501134;31;35601;-82
2022/08/21 02:24:37;;;;;;;6.95;3.60;;;;;;;20.45;84.63;98638.31;4501429;31;34428;-81
2022/08/21 02:27:23;;;;;;;8.50;4.00;;;;;;;20.53;83.50;98636.03;4502362;31;33602;-82
2022/08/21 02:29:54;;;;;;;5.65;3.50;;;;;;;20.22;86.16;98642.38;4499645;31;34366;-82
2022/08/21 02:32:23;;;;;;;8.23;4.47;;;;;;;20.24;85.93;98649.28;4501277;31;35017;-82
2022/08/21 02:34:51;;;;;;;7.50;4.22;;;;;;;20.50;84.73;98645.97;4501166;31;34724;-82
2022/08/21 02:37:19;;;;;;;7.62;4.05;;;;;;;19.87;89.03;98656.81;4501489;31;33656;-82
2022/08/21 02:39:47;;;;;;;8.13;4.10;;;;;;;20.19;86.69;98654.00;4499614;31;34018;-86
2022/08/21 02:42:15;;;;;;;6.12;3.55;;;;;;;20.42;85.53;98651.75;4501083;31;35834;-84
2022/08/21 02:44:43;;;;;;;7.47;3.62;;;;;;;20.30;86.95;98647.22;4498088;31;34450;-80
2022/08/21 02:47:11;;;;;;;8.98;5.00;;;;;;;20.52;85.41;98644.91;4484129;32;32106;-82
2022/08/21 02:49:39;;;;;;;6.82;4.55;;;;;;;20.07;87.93;98636.25;4495828;31;33919;-85
2022/08/21 02:52:07;;;;;;;7.30;4.28;;;;;;;20.82;83.83;98639.53;4501567;31;35921;-82
2022/08/21 02:54:35;;;;;;;7.78;4.30;;;;;;;20.44;85.51;98636.63;4498169;31;34173;-86
2022/08/21 02:57:03;;;;;;;8.30;4.80;;;;;;;20.83;82.93;98643.84;4487807;31;32842;-81
2022/08/21 02:59:31;;;;;;;7.65;4.50;;;;;;;20.88;82.94;98630.34;4501271;31;33039;-82
2022/08/21 03:01:59;;;;;;;7.82;4.72;;;;;;;20.54;84.93;98635.09;4497382;31;35783;-81
2022/08/21 03:04:27;;;;;;;8.43;4.55;;;;;;;20.79;83.26;98633.59;4492721;31;34491;-81
2022/08/21 03:06:55;;;;;;;8.63;4.53;;;;;;;20.25;87.07;98629.81;4492834;31;34186;-82
2022/08/21 03:09:23;;;;;;;9.85;5.15;;;;;;;20.74;84.01;98635.66;4492925;31;34760;-81
2022/08/21 03:11:51;;;;;;;8.02;4.68;;;;;;;20.45;85.25;98627.72;4495470;31;35145;-82
2022/08/21 03:14:19;;;;;;;9.73;5.18;;;;;;;20.69;84.55;98632.47;4493150;31;35137;-82
2022/08/21 03:16:47;;;;;;;8.00;4.10;;;;;;;20.64;84.56;98638.03;4491377;31;33915;-84
2022/08/21 03:19:15;;;;;;;8.25;4.25;;;;;;;20.53;85.17;98633.41;4494481;31;34693;-81
2022/08/21 03:21:43;;;;;;;8.82;5.05;;;;;;;19.92;90.14;98635.38;4484721;31;34960;-85
2022/08/21 03:24:11;;;;;;;12.68;5.68;;;;;;;20.39;87.54;98628.13;4492287;31;34543;-81
2022/08/21 03:26:40;;;;;;;8.77;4.78;;;;;;;20.16;88.78;98632.19;4492722;31;34507;-82
2022/08/21 03:29:08;;;;;;;8.20;5.00;;;;;;;20.18;89.31;98631.16;4493320;31;35050;-82
2022/08/21 03:31:36;;;;;;;9.30;5.97;;;;;;;20.02;89.37;98641.81;4493442;31;35855;-86
2022/08/21 03:34:04;;;;;;;8.40;5.40;;;;;;;20.34;87.83;98646.06;4485595;31;35112;-81
2022/08/21 03:36:32;;;;;;;10.75;5.12;;;;;;;20.13;88.58;98643.78;4493310;31;34030;-80
2022/08/21 03:39:00;;;;;;;10.00;5.55;;;;;;;20.38;87.15;98642.28;4485689;31;34756;-81
2022/08/21 03:41:27;;;;;;;8.95;5.35;;;;;;;19.81;91.32;98638.66;4495745;31;35202;-81
2022/08/21 03:43:55;;;;;;;9.45;4.87;;;;;;;20.31;88.54;98643.59;4499950;31;34504;-80
2022/08/21 03:46:23;;;;;;;9.57;5.75;;;;;;;20.33;87.78;98642.59;4501777;31;34581;-81
2022/08/21 03:48:52;;;;;;;10.88;5.35;;;;;;;20.54;85.40;98643.03;4499741;31;33936;-79
2022/08/21 03:51:20;;;;;;;10.18;5.75;;;;;;;20.52;86.46;98639.63;4499065;31;34405;-81
2022/08/21 03:53:48;;;;;;;12.18;6.72;;;;;;;20.31;87.54;98646.25;4489472;31;34495;-81
2022/08/21 03:56:16;;;;;;;13.43;6.22;;;;;;;20.08;89.45;98651.16;4486813;31;33697;-80
2022/08/21 03:58:44;;;;;;;11.40;5.90;;;;;;;19.94;90.94;98659.06;4493937;31;33842;-86
2022/08/21 04:01:13;;;;;;;15.38;5.78;;;;;;;20.25;87.88;98648.31;4484951;31;36023;-79
2022/08/21 04:03:41;;;;;;;10.63;6.22;;;;;;;20.58;85.83;98649.81;4497829;31;35352;-80
2022/08/21 04:06:09;;;;;;;12.95;7.07;;;;;;;20.11;89.20;98652.78;4501463;31;34596;-81
2022/08/21 04:08:37;;;;;;;11.73;5.68;;;;;;;20.38;87.15;98656.38;4500482;31;34061;-81
2022/08/21 04:11:06;;;;;;;10.60;4.82;;;;;;;20.29;88.71;98656.06;4501574;31;35528;-82
2022/08/21 04:13:34;;;;;;;11.65;5.60;;;;;;;20.64;85.38;98660.03;4501955;31;35229;-80
2022/08/21 04:16:12;;;;;;;10.05;5.75;;;;;;;20.79;84.50;98660.03;4501508;31;33396;-81
2022/08/21 04:18:40;;;;;;;9.63;5.25;;;;;;;20.34;87.70;98661.94;4494111;31;34054;-79
2022/08/21 04:21:10;;;;;;;10.00;5.90;;;;;;;20.71;85.76;98664.97;4484531;32;35762;-81
2022/08/21 04:23:40;;;;;;;10.88;5.32;;;;;;;20.64;84.89;98659.19;4484375;32;34443;-83
2022/08/21 04:26:09;;;;;;;9.73;5.45;;;;;;;20.70;84.29;98668.53;4484491;32;34395;-81
2022/08/21 04:28:37;;;;;;;10.57;5.62;;;;;;;20.68;84.66;98670.44;4485574;32;33888;-81
2022/08/21 04:31:06;;;;;;;11.05;6.03;;;;;;;20.61;85.95;98669.94;4485522;32;34943;-81
2022/08/21 04:33:34;;;;;;;11.18;5.78;;;;;;;20.84;84.29;98671.16;4485508;32;34491;-81
2022/08/21 04:36:03;;;;;;;10.98;5.72;;;;;;;20.78;84.74;98671.56;4477813;32;33749;-82
2022/08/21 04:38:31;;;;;;;10.60;5.97;;;;;;;20.43;86.78;98671.94;4485512;32;34686;-80
2022/08/21 04:41:05;;;;;;;9.45;5.70;;;;;;;20.39;87.53;98675.72;4484234;32;34963;-81
2022/08/21 04:43:34;;;;;;;7.82;4.68;;;;;;;20.62;85.43;98676.97;4485319;32;34625;-80
2022/08/21 04:46:01;;;;;;;9.07;6.03;;;;;;;20.78;85.68;98682.13;4485386;32;33643;-79
2022/08/21 04:48:29;;;;;;;10.68;5.60;;;;;;;20.78;83.75;98682.97;4485316;32;33728;-83
2022/08/21 04:51:01;;;;;;;11.90;5.10;;;;;;;20.63;85.17;98679.53;4488074;31;35823;-84
2022/08/21 04:53:41;;;;;;;9.40;5.45;;;;;;;20.53;86.10;98683.66;4500399;31;34838;-83
2022/08/21 04:56:22;;;;;;;11.02;5.00;;;;;;;21.13;82.04;98685.19;4501112;31;33553;-84
2022/08/21 04:58:53;;;;;;;10.52;5.35;;;;;;;20.96;83.12;98686.25;4486878;31;33119;-83
2022/08/21 05:01:23;;;;;;;10.93;5.03;;;;;;;20.85;84.00;98678.16;4499756;31;35507;-85
2022/08/21 05:04:01;;;;;;;11.63;4.65;;;;;;;21.07;81.90;98685.59;4500876;31;34075;-83
2022/08/21 05:06:36;;;;;;;7.97;4.70;;;;;;;21.03;82.50;98684.06;4500822;31;33535;-83
2022/08/21 05:09:04;;;;;;;6.78;4.40;;;;;;;20.95;82.04;98684.56;4500232;31;33886;-79
2022/08/21 05:11:34;;;;;;;8.25;4.80;;;;;;;21.14;81.61;98683.37;4500663;31;35090;-81
2022/08/21 05:14:02;;;;;;;9.48;4.65;;;;;;;21.04;82.53;98688.41;4499735;31;35202;-83
2022/08/21 05:16:31;;;;;;;8.18;4.87;;;;;;;20.86;83.38;98685.16;4500697;31;33549;-84
2022/08/21 05:19:06;;;;;;;6.57;4.45;;;;;;;20.79;83.33;98695.28;4499613;31;32518;-87
2022/08/21 05:21:35;;;;;;;6.35;4.12;;;;;;;21.06;81.96;98694.47;4500523;31;34948;-86
2022/08/21 05:24:04;;;;;;;5.90;3.47;;;;;;;20.78;82.89;98698.03;4500437;31;34323;-85
2022/08/21 05:26:33;;;;;;;7.05;3.87;;;;;;;20.55;83.90;98699.44;4499867;31;32851;-84
2022/08/21 05:29:15;;;;;;;7.57;4.30;;;;;;;21.10;81.64;98703.06;4500560;31;33907;-86
2022/08/21 05:31:46;;;;;;;6.70;3.87;;;;;;;20.79;83.59;98697.09;4500444;31;35024;-86
2022/08/21 05:34:20;;;;;;;7.32;4.05;;;;;;;20.82;83.33;98704.81;4500451;31;34491;-86
2022/08/21 05:36:48;;;;;;;7.80;4.10;;;;;;;21.06;81.70;98704.22;4500352;31;33299;-85
2022/08/21 05:39:16;;;;;;;8.38;3.80;;;;;;;21.42;79.02;98702.75;4500455;31;33446;-86
2022/08/21 05:41:44;;;;;;;6.18;3.50;;;;;;;21.27;80.02;98700.16;4499184;31;35740;-86
2022/08/21 05:44:12;;;;;;;6.87;3.35;;;;;;;20.79;82.80;98703.22;4499640;31;35141;-86
2022/08/21 05:46:40;;;;;;;7.30;3.70;;;;;;;21.11;79.83;98700.31;4500352;31;33113;-86
2022/08/21 05:49:08;;;;;;;6.60;3.55;;;;;;;21.24;79.25;98703.00;4499205;31;33775;-86
2022/08/21 05:51:40;;;;;;;5.47;3.35;;;;;;;21.04;81.08;98695.53;4490282;31;35150;-86
2022/08/21 05:54:08;;;;;;;5.53;3.60;;;;;;;21.12;80.38;98695.88;4484650;31;35171;-86
2022/08/21 05:56:37;;;;;;;6.82;3.55;;;;;;;20.83;82.30;98693.28;4476839;31;235711;-85
2022/08/21 05:59:06;;;;;;;6.00;3.67;;;;;;;21.11;80.22;98694.19;4484670;31;34710;-86
2022/08/21 06:01:35;;;;;;;5.47;3.12;;;;;;;20.74;81.68;98694.72;4499282;31;35149;-86
2022/08/21 06:04:04;;;;;;;6.30;3.65;;;;;;;20.62;82.24;98688.38;4500508;31;34360;-86
2022/08/21 06:06:33;;;;;;;6.18;3.85;;;;;;;20.68;81.24;98684.50;4502598;31;33281;-86
2022/08/21 06:09:02;;;;;;;6.32;3.62;;;;;;;20.85;80.42;98686.09;4500955;31;33907;-84
2022/08/21 06:11:31;;;;;;;5.97;3.22;;;;;;;20.95;80.13;98696.97;4498882;31;35502;-84
2022/08/21 06:13:59;;;;;;;7.37;3.62;;;;;;;21.18;78.39;98704.25;4501583;31;35211;-82
2022/08/21 06:16:27;;;;;;;8.10;3.25;;;;;;;20.95;79.26;98689.03;4497574;31;33534;-85
2022/08/21 06:18:55;;;;;;;6.22;3.75;;;;;;;20.61;81.91;98701.69;4500739;31;34618;-85
2022/08/21 06:21:29;;;;;;;6.30;3.70;;;;;;;20.77;81.16;98696.31;4501458;31;35750;-85
2022/08/21 06:23:57;;;;;;;6.93;3.37;;;;;;;21.01;79.82;98700.03;4502341;31;35167;-84
2022/08/21 06:26:26;;;;;;;8.48;3.47;;;;;;;21.05;79.25;98699.84;4498198;31;33561;-86
2022/08/21 06:28:54;;;;;;;6.53;3.08;;;;;;;21.07;79.14;98706.75;4501510;31;33933;-84
2022/08/21 06:31:23;;;;;;;7.00;3.30;;;;;;;21.01;79.56;98699.19;4500051;31;34945;-85
2022/08/21 06:33:52;;;;;;;5.75;3.42;;;;;;;20.95;79.65;98697.81;4502226;31;34426;-84
2022/08/21 06:36:20;;;;;;;7.12;3.92;;;;;;;20.82;80.98;98696.88;4499881;31;32069;-84
2022/08/21 06:38:49;;;;;;;6.12;3.83;;;;;;;21.06;79.14;98699.75;4502278;31;34648;-85
2022/08/21 06:41:19;;;;;;;8.15;4.32;;;;;;;20.99;79.93;98695.81;4500686;31;35862;-85
2022/08/21 06:43:54;;;;;;;6.78;3.70;;;;;;;20.94;80.84;98700.53;4499992;31;35246;-85
2022/08/21 06:46:24;;;;;;;7.47;3.90;;;;;;;21.23;80.15;98698.69;4499862;31;33985;-84
2022/08/21 06:48:52;;;;;;;7.35;3.45;;;;;;;21.11;79.50;98702.12;4500935;31;33982;-87
2022/08/21 06:51:20;;;;;;;6.37;3.67;;;;;;;20.94;82.00;98704.03;4501365;31;35727;-85
2022/08/21 06:53:49;;;;;;;6.20;3.55;;;;;;;21.27;79.56;98708.13;4501682;31;35029;-86
2022/08/21 06:56:17;;;;;;;5.68;3.58;;;;;;;21.80;75.65;98710.84;4500577;31;34170;-86
2022/08/21 06:58:45;;;;;;;6.45;3.60;;;;;;;21.92;76.06;98709.19;4487278;31;33525;-86
2022/08/21 07:01:13;;;;;;;5.57;3.60;;;;;;;21.61;78.21;98703.28;4499233;31;33521;-85
2022/08/21 07:03:42;;;;;;;6.47;3.70;;;;;;;21.87;77.06;98711.31;4486846;31;32715;-86
2022/08/21 07:06:11;;;;;;;6.07;3.70;;;;;;;21.55;78.25;98711.66;4501767;31;33619;-85
2022/08/21 07:08:39;;;;;;;7.82;3.72;;;;;;;21.84;76.21;98719.44;4501142;31;33851;-82
2022/08/21 07:11:12;;;;;;;6.32;3.72;;;;;;;21.46;77.98;98712.22;4502009;31;35753;-85
2022/08/21 07:13:40;;;;;;;9.75;4.10;;;;;;;21.67;76.02;98721.44;4474795;32;33932;-85
2022/08/21 07:16:08;;;;;;;5.93;3.87;;;;;;;22.27;74.32;98717.41;4496978;31;33154;-84
2022/08/21 07:18:36;;;;;;;6.12;3.50;;;;;;;22.03;75.66;98714.59;4501218;31;33938;-85
2022/08/21 07:21:07;;;;;;;6.85;3.65;;;;;;;22.02;75.09;98718.19;4501968;31;34621;-86
2022/08/21 07:23:42;;;;;;;6.25;4.07;;;;;;;21.70;75.16;98723.84;4499329;31;33789;-85
2022/08/21 07:26:12;;;;;;;6.95;3.97;;;;;;;21.69;76.75;98714.22;4488095;31;32839;-85
2022/08/21 07:28:40;;;;;;;6.50;3.85;;;;;;;21.95;75.72;98711.59;4487070;31;32207;-85
2022/08/21 07:31:09;;;;;;;5.35;3.00;;;;;;;21.75;77.11;98712.97;4501023;31;35051;-86
2022/08/21 07:33:37;;;;;;;5.85;3.55;;;;;;;22.01;76.05;98711.22;4496568;31;35144;-85
2022/08/21 07:36:06;;;;;;;9.05;4.32;;;;;;;21.80;76.78;98713.50;4500749;31;32001;-85
2022/08/21 07:38:34;;;;;;;6.05;3.95;;;;;;;21.96;76.08;98713.31;4501172;31;34612;-86
2022/08/21 07:41:15;;;;;;;6.50;4.07;;;;;;;21.91;76.07;98710.97;4501862;31;35884;-86
2022/08/21 07:43:43;;;;;;;5.87;3.90;;;;;;;21.97;75.68;98715.00;4486765;31;34461;-84
2022/08/21 07:46:13;;;;;;;5.87;3.97;;;;;;;22.48;74.98;98696.50;4501777;31;34023;-85
2022/08/21 07:48:41;;;;;;;6.25;3.50;;;;;;;22.61;73.90;98700.94;4500312;31;32948;-86
2022/08/21 07:51:11;;;;;;;6.43;4.20;;;;;;;22.43;75.05;98698.63;4500756;31;34316;-85
2022/08/21 07:53:40;;;;;;;8.77;5.18;;;;;;;22.41;74.95;98705.81;4500965;31;33938;-84
2022/08/21 07:56:10;;;;;;;11.43;4.43;;;;;;;22.10;74.69;98702.63;4500396;31;34397;-84
2022/08/21 07:58:38;;;;;;;7.60;4.30;;;;;;;22.59;73.68;98705.50;4482257;32;32202;-85
2022/08/21 08:01:06;;;;;;;6.78;4.22;;;;;;;22.64;73.06;98698.06;4484693;32;35148;-85
2022/08/21 08:03:36;;;;;;;5.90;4.18;;;;;;;22.69;72.65;98691.47;4483929;31;34096;-86
2022/08/21 08:06:04;;;;;;;7.47;4.57;;;;;;;23.17;71.40;98696.06;4492597;31;33686;-85
2022/08/21 08:08:32;;;;;;;6.95;4.22;;;;;;;22.75;73.70;98684.88;4500708;31;34194;-86
2022/08/21 08:11:01;;;;;;;6.20;4.03;;;;;;;23.15;71.47;98692.63;4501629;31;34831;-85
2022/08/21 08:13:29;;;;;;;7.20;4.53;;;;;;;22.63;74.97;98689.25;4500600;31;34581;-84
2022/08/21 08:15:57;;;;;;;8.60;4.47;;;;;;;23.25;70.85;98691.00;4501522;31;33641;-85
2022/08/21 08:18:25;;;;;;;6.80;4.28;;;;;;;23.56;70.11;98691.41;4500715;31;34768;-86
2022/08/21 08:20:53;;;;;;;5.80;3.90;;;;;;;23.91;69.34;98695.88;4500826;31;35731;-86
2022/08/21 08:23:21;;;;;;;6.68;4.25;;;;;;;24.04;69.32;98690.50;4486197;31;32727;-85
2022/08/21 08:25:49;;;;;;;6.53;4.37;;;;;;;23.34;70.46;98686.00;4501677;31;34123;-85
2022/08/21 08:28:17;;;;;;;6.80;3.78;;;;;;;23.54;69.68;98688.03;4486202;31;33275;-87
2022/08/21 08:30:46;;;;;;;10.52;4.15;;;;;;;24.02;68.50;98687.94;4501371;31;35776;-84
2022/08/21 08:33:15;;;;;;;7.62;4.15;;;;;;;24.31;66.53;98687.50;4488077;31;35066;-86
2022/08/21 08:35:46;;;;;;;5.45;3.65;;;;;;;24.58;67.10;98681.87;4484488;32;33376;-85
2022/08/21 08:38:18;;;;;;;7.65;4.53;;;;;;;24.31;66.42;98684.84;4494020;31;34704;-85
2022/08/21 08:40:52;;;;;;;7.45;5.05;;;;;;;24.10;68.54;98687.34;4500451;31;35894;-85
2022/08/21 08:43:20;;;;;;;7.45;4.70;;;;;;;24.24;67.41;98680.97;4483646;31;34021;-86
2022/08/21 08:45:51;;;;;;;7.00;4.45;;;;;;;23.77;68.36;98691.59;4485582;32;33711;-85
2022/08/21 08:48:42;;;;;;;7.60;5.18;;;;;;;24.16;67.23;98694.00;4494339;31;34767;-85
2022/08/21 08:51:17;;;;;;;7.15;4.72;;;;;;;24.22;66.66;98689.06;4500061;31;34949;-84
2022/08/21 08:54:04;;;;;;;8.70;4.60;;;;;;;24.25;66.97;98681.81;4495228;31;34547;-86
2022/08/21 08:56:34;;;;;;;6.32;4.37;;;;;;;24.03;67.41;98683.47;4498713;31;33674;-85
2022/08/21 08:59:08;;;;;;;9.77;5.32;;;;;;;23.64;68.03;98681.03;4498446;31;33969;-84
2022/08/21 09:01:37;;;;;;;7.35;4.68;;;;;;;23.92;68.56;98686.97;4499856;31;35578;-84
2022/08/21 09:04:06;;;;;;;10.38;4.50;;;;;;;23.80;69.34;98682.53;4498692;31;32572;-85
2022/08/21 09:07:01;;;;;;;6.75;4.35;;;;;;;24.65;67.18;98684.03;4499931;31;33567;-84
2022/08/21 09:09:52;;;;;;;11.07;5.28;;;;;;;24.82;66.33;98682.69;4495088;31;33620;-87
2022/08/21 09:12:42;;;;;;;7.50;4.40;;;;;;;24.39;67.17;98695.75;4485326;32;35032;-88
2022/08/21 09:15:36;;;;;;;7.10;4.57;;;;;;;24.62;65.59;98692.25;4500689;31;34413;-87
2022/08/21 09:18:14;;;;;;;6.68;4.25;;;;;;;24.51;66.37;98693.94;4499878;31;33550;-87
2022/08/21 09:21:09;;;;;;;8.10;4.47;;;;;;;23.99;68.15;98693.50;4499751;31;34720;-85
2022/08/21 09:23:40;;;;;;;7.75;4.78;;;;;;;24.42;66.47;98687.53;4498132;31;34744;-85
2022/08/21 09:26:21;;;;;;;6.22;3.90;;;;;;;24.25;68.80;98682.66;4500043;31;34505;-85
2022/08/21 09:28:55;;;;;;;10.57;4.28;;;;;;;24.69;65.75;98680.16;4499198;31;32298;-85
2022/08/21 09:31:33;;;;;;;6.12;3.87;;;;;;;25.26;64.05;98678.28;4488737;31;33899;-84
2022/08/21 09:34:11;;;;;;;6.78;4.10;;;;;;;25.34;63.76;98684.66;4500404;31;35992;-86
2022/08/21 09:36:44;;;;;;;7.18;4.68;;;;;;;25.23;64.47;98683.81;4501569;31;34312;-85
2022/08/21 09:39:21;;;;;;;6.15;4.40;;;;;;;25.18;62.88;98681.50;4487701;31;32918;-85
2022/08/21 09:41:59;;;;;;;6.55;4.18;;;;;;;25.57;63.06;98678.38;4500203;31;33765;-85
2022/08/21 09:44:29;;;;;;;11.23;4.12;;;;;;;25.44;63.85;98681.22;4501503;31;35966;-85
2022/08/21 09:46:58;;;;;;;6.87;4.40;;;;;;;26.72;59.18;98673.03;4499574;31;34893;-85
2022/08/21 09:49:35;;;;;;;6.55;4.35;;;;;;;25.71;61.81;98672.72;4502561;31;33691;-85
2022/08/21 09:52:11;;;;;;;6.82;4.35;;;;;;;26.16;60.97;98677.84;4500633;31;34806;-86
2022/08/21 09:54:40;;;;;;;7.57;4.65;;;;;;;26.04;62.00;98677.06;4501432;31;35155;-86
2022/08/21 09:59:55;;;;;;;7.07;4.28;;;;;;;26.79;59.82;98679.53;4502718;31;33535;-85
2022/08/21 10:02:31;;;;;;;7.30;4.57;;;;;;;26.67;59.64;98670.81;4499518;31;33602;-86
2022/08/21 10:05:01;;;;;;;;;;;;;;;26.43;59.25;98676.44;4488401;31;35877;-86
2022/08/21 10:07:31;;;;;;;7.22;4.68;;;;;;;26.10;60.47;98678.34;4500687;31;35383;-85
2022/08/21 10:10:02;;;;;;;7.90;4.20;;;;;;;26.24;59.43;98678.03;4502484;31;34120;-85
2022/08/21 10:13:07;;;;;;;6.80;4.32;;;;;;;26.48;59.36;98676.88;4500981;31;34071;-87
2022/08/21 10:15:43;;;;;;;6.37;4.15;;;;;;;25.32;62.46;98672.41;4480515;32;35879;-86
2022/08/21 10:18:22;;;;;;;5.40;3.97;;;;;;;25.99;61.86;98678.44;4493729;31;34419;-85
2022/08/21 10:21:05;;;;;;;6.60;4.18;;;;;;;26.75;58.79;98672.78;4501283;31;34316;-85
2022/08/21 10:24:06;;;;;;;6.43;4.00;;;;;;;27.06;57.79;98678.91;4499888;31;34399;-86
2022/08/21 10:27:17;;;;;;;7.95;4.03;;;;;;;26.65;58.77;98678.94;4501113;31;35903;-87
2022/08/21 10:30:08;;;;;;;7.10;3.85;;;;;;;27.13;57.79;98677.38;4502385;31;33985;-86
2022/08/21 10:33:01;;;;;;;6.75;4.20;;;;;;;27.90;54.56;98685.56;4497531;31;34870;-86
2022/08/21 10:35:33;;;;;;;9.32;4.40;;;;;;;28.07;54.50;98671.47;4502401;31;33858;-87
2022/08/21 10:38:40;;;;;;;7.57;4.35;;;;;;;28.65;52.98;98680.34;4500196;31;34987;-85
2022/08/21 10:41:41;;;;;;;6.07;3.83;;;;;;;28.48;54.68;98674.72;4496677;31;35102;-85
2022/08/21 10:44:44;;;;;;;6.57;3.72;;;;;;;27.46;57.41;98677.16;4502328;31;34457;-84
2022/08/21 10:47:32;;;;;;;9.60;5.03;;;;;;;27.63;55.54;98673.78;4477863;31;34228;-86
2022/08/21 10:50:13;;;;;;;7.15;4.18;;;;;;;28.45;53.42;98668.81;4485258;32;35973;-84
2022/08/21 10:53:00;;;;;;;5.82;4.18;;;;;;;28.41;54.41;98662.09;4487502;31;35857;-85
2022/08/21 10:55:36;;;;;;;10.23;4.87;;;;;;;27.87;55.50;98676.00;4500978;31;34330;-86
2022/08/21 10:58:09;;;;;;;7.45;4.72;;;;;;;28.40;54.29;98663.09;4487099;31;34139;-85
2022/08/21 11:00:47;;;;;;;11.32;4.60;;;;;;;28.67;52.52;98662.28;4502120;31;34896;-85
2022/08/21 11:03:37;;;;;;;7.57;4.70;;;;;;;28.63;53.74;98666.25;4486279;31;33302;-85
2022/08/21 11:06:16;;;;;;;8.13;4.80;;;;;;;28.50;53.58;98663.88;4484062;32;34423;-85
2022/08/21 11:08:49;;;;;;;6.25;4.32;;;;;;;28.31;54.82;98659.47;4480423;31;33107;-84
2022/08/21 11:11:38;;;;;;;7.68;4.75;;;;;;;28.08;54.63;98662.47;4500814;31;35887;-84
2022/08/21 11:14:26;;;;;;;7.78;4.30;;;;;;;27.10;55.86;98653.59;4487829;31;33642;-84
2022/08/21 11:17:03;;;;;;;7.05;4.10;;;;;;;27.23;57.08;98659.53;4499314;31;33732;-87
2022/08/21 11:19:46;;;;;;;6.05;3.80;;;;;;;27.64;56.33;98664.78;4487715;31;33916;-85
2022/08/21 11:22:38;;;;;;;6.25;3.55;;;;;;;27.70;57.06;98652.66;4497645;31;34995;-85
2022/08/21 11:25:17;;;;;;;7.18;4.05;;;;;;;27.46;56.33;98650.41;4500603;31;34065;-85
2022/08/21 11:27:51;;;;;;;8.77;3.85;;;;;;;27.23;57.44;98656.00;4500286;31;34366;-85
2022/08/21 11:30:19;;;;;;;5.60;3.42;;;;;;;27.15;57.48;98655.84;4501984;31;34782;-85
2022/08/21 11:32:59;;;;;;;8.48;4.35;;;;;;;26.71;58.44;98655.34;4499833;31;35721;-85
2022/08/21 11:35:35;;;;;;;6.62;4.05;;;;;;;27.13;56.65;98661.34;4502122;31;35256;-85
2022/08/21 11:38:19;;;;;;;7.30;4.90;;;;;;;26.76;58.81;98653.94;4499091;31;33614;-85
2022/08/21 11:41:09;;;;;;;8.30;4.20;;;;;;;27.22;57.54;98665.00;4500710;31;34794;-85
2022/08/21 11:43:39;;;;;;;6.65;4.28;;;;;;;26.96;57.39;98652.16;4501241;31;35026;-85
2022/08/21 11:46:20;;;;;;;5.65;3.58;;;;;;;27.21;56.79;98647.28;4500673;31;34505;-86
2022/08/21 11:49:18;;;;;;;7.50;4.22;;;;;;;27.18;57.47;98651.09;4493297;31;33666;-85
2022/08/21 11:51:53;;;;;;;11.55;4.35;;;;;;;27.03;58.06;98647.94;4495981;31;33180;-84
2022/08/21 11:54:21;;;;;;;7.95;4.45;;;;;;;26.85;58.57;98641.59;4497904;31;34930;-84
2022/08/21 11:57:00;;;;;;;6.78;4.37;;;;;;;26.64;59.12;98631.84;4501973;31;35345;-85
2022/08/21 11:59:43;;;;;;;6.40;4.03;;;;;;;26.79;58.37;98636.78;4500846;31;34425;-85